Melbourne, FL

10:24 PM EST on February 13, 2016 (GMT -0500)
Melbourne International | | Change Station
CLOSE
Current Station
Airport
Location: Melbourne,
Elevation: 33 ft
Nearby Weather Stations

Elev 33 ft 28.10 °N, 80.65 °W | Updated 31 minutes ago

Clear
Clear
55 °F
Feels Like 55 °F
N
9
Wind Variable Wind from North

Today
High -- | Low -- °F
--% Chance of Precip.
Yesterday
High -- | Low -- °F
Precip. -- in
Pressure 30.27 in
Visibility 10.0 miles
Clouds Clear
Dew Point 44 °F
Humidity 67%
Rainfall 0.00 in
Snow Depth Not available.
7:02 AM 6:11 PM
Waxing Crescent, 37% visible
METAR KMLB 140253Z 01008KT 10SM CLR 13/07 A3027 RMK AO2 SLP248 T01280067 53013
Pressure 30.27 in
Visibility 10.0 miles
Clouds Clear
Dew Point 44 °F
Humidity 67%
Rainfall 0.00 in
Snow Depth Not available.
7:02 AM 6:11 PM
Waxing Crescent, 37% visible
METAR KMLB 140253Z 01008KT 10SM CLR 13/07 A3027 RMK AO2 SLP248 T01280067 53013

10-Day Weather Forecast

Almanac

Astronomy

Feb. 13, 2016 Rise Set
Actual Time
Civil Twilight
Nautical Twilight
Astronomical Twilight
Moon
Length of Visible Light
Length of Day
Tomorrow will be .
, % of the Moon is Illuminated

Today's Extremes

State Highs State Lows

Community

WunderPhotos

Upload Photos

1,892,738 photos uploaded!

WunderBlog® & News

Nearby

Air Quality

  Air Quality AQ Index Pollutant
Not available.

Snow Depth

Station Depth Elevation

Earthquake Activity

City Distance Mag. Time & Date
Minimum magnitude displayed is 2.5.

Coastal Water Temperatures

Place Temperature

Stations

Nearby Weather Stations

Station Location Temp. Windchill Dew Point Humidity Wind Precip. Elev Updated Type
                   

Watches & Warnings

There are currently no watches in effect.